Unity N — V7WI2 — position and weather

sailwx.info

Track history (hours):
 
Tides and Currents Weather Stations Pressure Air Temp Water Temp Dewpoint Dewpoint Depression Visibility Wind Speed Wind Dir Waves Ship Positions

Unity N

Last reported at 2017-Dec-28 02:37 UTC. Time now 2018-Jan-19 09:52 UTC.
Position N 36°22' E 014°53'.
Warning: this ship's position is 22 days out of date.

Length 229 m; draft 12.9 m.

Type: Cargo ship. MMSI: 538006451.

Date/timePositionNaut miles runAvg speedWind from/ knotsBaromVisibWave heightAir tempDewpointWater temp
2017-Dec-28 02:37N 36°22' E 014°53'410.7
2017-Dec-28 02:13N 36°23' E 014°48'410.7
2017-Dec-28 01:53N 36°25' E 014°44'410.4
2017-Dec-28 01:30N 36°26' E 014°39'510.5
2017-Dec-28 01:00N 36°28' E 014°33'510.4
2017-Dec-28 00:30N 36°29' E 014°26'510.2
2017-Dec-28 00:01N 36°31' E 014°20'5 9.6
2017-Dec-27 23:31N 36°32' E 014°15'510.0
2017-Dec-27 23:00N 36°34' E 014°09'5 9.9
2017-Dec-27 22:29N 36°35' E 014°03'  
2017-Dec-24 04:29N 36°01' W 005°10'510.5
2017-Dec-24 04:00N 35°60' W 005°16'510.6
2017-Dec-24 03:30N 35°58' W 005°22'510.4
2017-Dec-24 03:01N 35°57' W 005°28'  
2017-Dec-21 13:05N 28°33' W 013°11'  
Track history (hours):
 
Tides and Currents Weather Stations Pressure Air Temp Water Temp Dewpoint Dewpoint Depression Visibility Wind Speed Wind Dir Waves Ship Positions

Unity N

Last reported at 2017-Dec-28 02:37 UTC. Time now 2018-Jan-19 09:52 UTC.
Position N 36°22' E 014°53'.
Warning: this ship's position is 22 days out of date.

Length 229 m; draft 12.9 m.

Type: Cargo ship. MMSI: 538006451.

Date/timePositionNaut miles runAvg speedWind from/ knotsBaromVisibWave heightAir tempDewpointWater temp
2017-Dec-28 02:37N 36°22' E 014°53'410.7
2017-Dec-28 02:13N 36°23' E 014°48'410.7
2017-Dec-28 01:53N 36°25' E 014°44'410.4
2017-Dec-28 01:30N 36°26' E 014°39'510.5
2017-Dec-28 01:00N 36°28' E 014°33'510.4
2017-Dec-28 00:30N 36°29' E 014°26'510.2
2017-Dec-28 00:01N 36°31' E 014°20'5 9.6
2017-Dec-27 23:31N 36°32' E 014°15'510.0
2017-Dec-27 23:00N 36°34' E 014°09'5 9.9
2017-Dec-27 22:29N 36°35' E 014°03'  
2017-Dec-24 04:29N 36°01' W 005°10'510.5
2017-Dec-24 04:00N 35°60' W 005°16'510.6
2017-Dec-24 03:30N 35°58' W 005°22'510.4
2017-Dec-24 03:01N 35°57' W 005°28'  
2017-Dec-21 13:05N 28°33' W 013°11'  

Dump ship's entire track history